Time;durP1;ratioP1;P1;durP2;ratioP2;P2;SDS_P1;SDS_P2;PMS_P1;PMS_P2;Temp;Humidity;BMP_temperature;BMP_pressure;BME280_temperature;BME280_humidity;BME280_pressure;Samples;Min_cycle;Max_cycle;Signal;HPM_P1;HPM_P2
2021/06/08 00:01:34;;;;;;;;;;;20.60;62.90;;;;;;5052354;28;1123;-66
2021/06/08 00:04:00;;;;;;;;;;;20.60;63.70;;;;;;5052219;28;1197;-66
2021/06/08 00:06:25;;;;;;;;;;;20.50;62.90;;;;;;5052525;28;1158;-67
2021/06/08 00:08:50;;;;;;;;;;;20.60;63.00;;;;;;5052504;28;1059;-66
2021/06/08 00:11:19;;;;;;;;;;;20.60;63.00;;;;;;5052485;28;1901;-66
2021/06/08 00:13:45;;;;;;;;;;;20.60;63.00;;;;;;5052817;28;1313;-65
2021/06/08 00:16:10;;;;;;;;;;;20.60;63.00;;;;;;5052129;28;1102;-66
2021/06/08 00:18:36;;;;;;;;;;;20.60;63.00;;;;;;5052346;28;1087;-66
2021/06/08 00:21:01;;;;;;;;;;;20.60;63.00;;;;;;5048829;28;1263;-66
2021/06/08 00:23:27;;;;;;;;;;;20.60;63.00;;;;;;5056188;28;1362;-66
2021/06/08 00:25:52;;;;;;;;;;;20.60;63.00;;;;;;5056073;28;1130;-66
2021/06/08 00:28:17;;;;;;;;;;;20.60;63.00;;;;;;5056380;28;1122;-66
2021/06/08 00:30:43;;;;;;;;;;;20.60;63.00;;;;;;5055646;28;1989;-66
2021/06/08 00:33:08;;;;;;;;;;;20.60;63.00;;;;;;5055909;28;1282;-66
2021/06/08 00:35:34;;;;;;;;;;;20.50;63.00;;;;;;5056021;28;1185;-66
2021/06/08 00:37:59;;;;;;;;;;;20.60;63.10;;;;;;5056107;28;1063;-66
2021/06/08 00:40:28;;;;;;;;;;;20.60;63.00;;;;;;5054772;28;1173;-66
2021/06/08 00:42:54;;;;;;;;;;;20.60;63.10;;;;;;5038227;28;1651;-66
2021/06/08 00:45:19;;;;;;;;;;;20.60;63.10;;;;;;5055665;28;1087;-66
2021/06/08 00:47:45;;;;;;;;;;;20.60;63.10;;;;;;5054737;28;1071;-66
2021/06/08 00:50:10;;;;;;;;;;;20.60;63.10;;;;;;5055770;28;1185;-66
2021/06/08 00:52:35;;;;;;;;;;;20.60;63.10;;;;;;5055931;28;1959;-66
2021/06/08 00:55:01;;;;;;;;;;;20.50;63.10;;;;;;5055390;28;1095;-66
2021/06/08 00:57:26;;;;;;;;;;;20.60;63.10;;;;;;5056053;28;1075;-66
2021/06/08 00:59:52;;;;;;;;;;;20.50;63.10;;;;;;5055255;28;1075;-66
2021/06/08 01:02:17;;;;;;;;;;;20.60;63.90;;;;;;5055764;28;1122;-66
2021/06/08 01:04:43;;;;;;;;;;;20.60;63.20;;;;;;5055167;28;1217;-66
2021/06/08 01:07:08;;;;;;;;;;;20.60;63.20;;;;;;5055547;28;1086;-66
2021/06/08 01:09:34;;;;;;;;;;;20.50;63.10;;;;;;5055865;28;1123;-66
2021/06/08 01:11:59;;;;;;;;;;;20.50;63.10;;;;;;5054193;28;1894;-66
2021/06/08 01:14:25;;;;;;;;;;;20.50;63.10;;;;;;5054925;28;1289;-66
2021/06/08 01:16:50;;;;;;;;;;;20.60;63.20;;;;;;5055189;28;1071;-66
2021/06/08 01:19:16;;;;;;;;;;;20.50;63.10;;;;;;5055261;28;1126;-66
2021/06/08 01:21:41;;;;;;;;;;;20.50;63.20;;;;;;5048765;28;1103;-66
2021/06/08 01:24:08;;;;;;;;;;;20.50;63.10;;;;;;5054851;28;1350;-66
2021/06/08 01:26:33;;;;;;;;;;;20.50;63.10;;;;;;5054021;28;1139;-66
2021/06/08 01:29:00;;;;;;;;;;;20.50;63.20;;;;;;5054955;28;1043;-66
2021/06/08 01:31:26;;;;;;;;;;;20.50;63.20;;;;;;5054688;28;1911;-66
2021/06/08 01:33:51;;;;;;;;;;;20.60;63.20;;;;;;5053032;28;1271;-66
2021/06/08 01:36:18;;;;;;;;;;;20.50;63.20;;;;;;5053614;28;1068;-66
2021/06/08 01:38:44;;;;;;;;;;;20.50;63.20;;;;;;5054962;28;1178;-66
2021/06/08 01:41:11;;;;;;;;;;;20.60;63.30;;;;;;5053589;28;1076;-66
2021/06/08 01:43:36;;;;;;;;;;;20.50;63.30;;;;;;5053245;28;1347;-66
2021/06/08 01:46:02;;;;;;;;;;;20.60;63.30;;;;;;5053538;28;1123;-66
2021/06/08 01:48:27;;;;;;;;;;;20.60;63.30;;;;;;5054764;28;1111;-66
2021/06/08 01:50:52;;;;;;;;;;;20.60;63.30;;;;;;5054448;28;1894;-66
2021/06/08 01:53:23;;;;;;;;;;;20.50;63.20;;;;;;5053149;28;1227;-66
2021/06/08 01:55:48;;;;;;;;;;;20.50;63.20;;;;;;5053365;28;997;-66
2021/06/08 01:58:23;;;;;;;;;;;20.50;63.30;;;;;;5053528;28;1155;-66
2021/06/08 02:00:56;;;;;;;;;;;20.60;63.40;;;;;;5053309;28;1130;-66
2021/06/08 02:03:27;;;;;;;;;;;20.50;63.30;;;;;;5054186;28;1262;-66
2021/06/08 02:06:12;;;;;;;;;;;20.50;63.30;;;;;;5054391;28;1126;-66
2021/06/08 02:08:41;;;;;;;;;;;20.50;63.30;;;;;;5054188;28;1201;-66
2021/06/08 02:11:07;;;;;;;;;;;20.50;64.00;;;;;;5053989;28;1979;-66
2021/06/08 02:13:32;;;;;;;;;;;20.50;63.30;;;;;;5052741;28;1234;-66
2021/06/08 02:15:59;;;;;;;;;;;20.60;63.40;;;;;;5052751;28;1615;-66
2021/06/08 02:18:28;;;;;;;;;;;20.50;63.30;;;;;;5053032;28;1139;-66
2021/06/08 02:20:53;;;;;;;;;;;20.50;63.30;;;;;;5046942;28;1079;-66
2021/06/08 02:23:20;;;;;;;;;;;20.50;63.30;;;;;;5052789;28;1385;-66
2021/06/08 02:25:46;;;;;;;;;;;20.50;63.70;;;;;;5036078;28;1239;-66
2021/06/08 02:28:14;;;;;;;;;;;20.50;63.30;;;;;;5053075;28;1388;-66
2021/06/08 02:30:40;;;;;;;;;;;20.50;63.40;;;;;;5052704;28;1969;-66
2021/06/08 02:33:05;;;;;;;;;;;20.50;63.40;;;;;;5052336;28;1260;-66
2021/06/08 02:35:31;;;;;;;;;;;20.50;63.40;;;;;;5052598;28;1099;-66
2021/06/08 02:37:56;;;;;;;;;;;20.50;63.40;;;;;;5052687;28;1073;-66
2021/06/08 02:40:22;;;;;;;;;;;20.50;63.40;;;;;;5035943;28;1208;-66
2021/06/08 02:42:47;;;;;;;;;;;20.50;63.40;;;;;;5053428;28;1350;-66
2021/06/08 02:45:13;;;;;;;;;;;20.50;63.40;;;;;;5051435;28;1223;-66
2021/06/08 02:47:38;;;;;;;;;;;20.50;63.40;;;;;;5052350;28;1153;-66
2021/06/08 02:50:04;;;;;;;;;;;20.50;63.40;;;;;;5052347;28;1055;-65
2021/06/08 02:52:30;;;;;;;;;;;20.50;63.50;;;;;;5052096;28;1960;-66
2021/06/08 02:54:58;;;;;;;;;;;20.50;63.40;;;;;;5053236;28;1079;-66
2021/06/08 02:57:24;;;;;;;;;;;20.50;63.40;;;;;;5052274;28;1131;-66
2021/06/08 02:59:49;;;;;;;;;;;20.50;63.40;;;;;;5052231;28;1048;-66
2021/06/08 03:02:15;;;;;;;;;;;20.50;63.40;;;;;;5053276;28;1150;-66
2021/06/08 03:04:43;;;;;;;;;;;20.50;63.50;;;;;;5051961;28;1248;-65
2021/06/08 03:07:08;;;;;;;;;;;20.50;63.50;;;;;;5051793;28;1119;-66
2021/06/08 03:09:34;;;;;;;;;;;20.50;63.40;;;;;;5051955;28;1198;-66
2021/06/08 03:12:01;;;;;;;;;;;20.50;63.40;;;;;;5051288;28;1961;-66
2021/06/08 03:14:26;;;;;;;;;;;20.50;63.50;;;;;;5051741;28;1263;-66
2021/06/08 03:16:53;;;;;;;;;;;20.50;63.50;;;;;;5053180;28;1052;-66
2021/06/08 03:19:20;;;;;;;;;;;20.50;63.50;;;;;;5051614;28;1151;-66
2021/06/08 03:21:45;;;;;;;;;;;20.50;63.50;;;;;;5046615;28;1230;-66
2021/06/08 03:24:14;;;;;;;;;;;20.50;63.50;;;;;;5051286;28;1370;-66
2021/06/08 03:26:39;;;;;;;;;;;20.50;63.50;;;;;;5051795;28;1071;-66
2021/06/08 03:29:08;;;;;;;;;;;20.50;63.60;;;;;;5051684;28;1091;-66
2021/06/08 03:31:37;;;;;;;;;;;20.50;63.50;;;;;;5051655;28;1990;-66
2021/06/08 03:34:02;;;;;;;;;;;20.50;63.50;;;;;;5051164;28;1352;-66
2021/06/08 03:36:28;;;;;;;;;;;20.50;63.60;;;;;;5051831;28;1072;-66
2021/06/08 03:38:53;;;;;;;;;;;20.50;63.60;;;;;;5051471;28;1123;-67
2021/06/08 03:41:19;;;;;;;;;;;20.50;63.60;;;;;;5051614;28;1044;-66
2021/06/08 03:43:44;;;;;;;;;;;20.50;63.60;;;;;;5051200;28;1291;-66
2021/06/08 03:46:10;;;;;;;;;;;20.50;63.60;;;;;;5052736;28;1126;-66
2021/06/08 03:48:35;;;;;;;;;;;20.50;63.60;;;;;;5052363;28;1130;-66
2021/06/08 03:51:01;;;;;;;;;;;20.50;63.60;;;;;;5051366;28;1995;-66
2021/06/08 03:53:26;;;;;;;;;;;20.50;63.60;;;;;;5052212;28;1276;-66
2021/06/08 03:55:52;;;;;;;;;;;20.50;63.60;;;;;;5055184;28;1056;-66
2021/06/08 03:58:17;;;;;;;;;;;20.50;63.60;;;;;;5059290;28;1051;-66
2021/06/08 04:00:46;;;;;;;;;;;20.50;63.60;;;;;;5048111;28;1072;-66
2021/06/08 04:03:11;;;;;;;;;;;20.50;63.60;;;;;;5056483;28;1355;-66
2021/06/08 04:05:37;;;;;;;;;;;20.50;63.60;;;;;;5058285;28;1107;-66
2021/06/08 04:08:03;;;;;;;;;;;20.50;63.60;;;;;;5057876;28;1131;-66
2021/06/08 04:10:28;;;;;;;;;;;20.50;63.60;;;;;;5059279;28;1130;-66
2021/06/08 04:12:57;;;;;;;;;;;20.50;63.60;;;;;;5057456;28;1949;-66
2021/06/08 04:15:23;;;;;;;;;;;20.50;63.60;;;;;;5057893;28;1271;-66
2021/06/08 04:17:49;;;;;;;;;;;20.50;63.60;;;;;;5057594;28;1087;-66
2021/06/08 04:20:14;;;;;;;;;;;20.50;63.60;;;;;;5055390;28;1067;-66
2021/06/08 04:22:40;;;;;;;;;;;20.50;63.60;;;;;;5056110;28;1281;-66
2021/06/08 04:25:06;;;;;;;;;;;20.50;63.60;;;;;;5059210;28;1075;-66
2021/06/08 04:27:32;;;;;;;;;;;20.50;63.70;;;;;;5058853;28;1158;-66
2021/06/08 04:29:57;;;;;;;;;;;20.50;63.60;;;;;;5059031;28;1158;-66
2021/06/08 04:32:23;;;;;;;;;;;20.50;63.70;;;;;;5058658;28;1917;-66
2021/06/08 04:34:48;;;;;;;;;;;20.50;63.70;;;;;;5058750;28;1154;-66
2021/06/08 04:37:14;;;;;;;;;;;20.50;63.60;;;;;;5058885;28;1114;-66
2021/06/08 04:39:39;;;;;;;;;;;20.50;63.60;;;;;;5058963;28;1086;-66
2021/06/08 04:42:06;;;;;;;;;;;20.50;63.60;;;;;;5058925;28;1194;-66
2021/06/08 04:44:31;;;;;;;;;;;20.50;63.70;;;;;;5058728;28;1132;-66
2021/06/08 04:46:56;;;;;;;;;;;20.50;63.70;;;;;;5058597;28;1055;-66
2021/06/08 04:49:22;;;;;;;;;;;20.50;63.70;;;;;;5058788;28;1099;-66
2021/06/08 04:51:47;;;;;;;;;;;20.50;63.70;;;;;;5058891;28;1866;-66
2021/06/08 04:54:13;;;;;;;;;;;20.50;63.70;;;;;;5058529;28;1603;-66
2021/06/08 04:56:38;;;;;;;;;;;20.50;63.70;;;;;;5058736;28;1102;-66
2021/06/08 04:59:04;;;;;;;;;;;20.50;63.70;;;;;;5058971;28;1114;-66
2021/06/08 05:01:30;;;;;;;;;;;20.50;63.70;;;;;;5058633;28;1121;-66
2021/06/08 05:03:57;;;;;;;;;;;20.50;63.70;;;;;;5057346;28;1327;-66
2021/06/08 05:06:26;;;;;;;;;;;20.50;63.70;;;;;;5056256;28;1107;-66
2021/06/08 05:08:52;;;;;;;;;;;20.50;63.70;;;;;;5055201;28;1142;-66
2021/06/08 05:11:17;;;;;;;;;;;20.50;63.70;;;;;;5054029;28;1898;-66
2021/06/08 05:13:46;;;;;;;;;;;20.50;63.80;;;;;;5055094;28;1229;-66
2021/06/08 05:16:11;;;;;;;;;;;20.50;63.70;;;;;;5037555;28;1273;-66
2021/06/08 05:18:37;;;;;;;;;;;20.50;63.80;;;;;;5055495;28;916;-66
2021/06/08 05:21:04;;;;;;;;;;;20.50;63.80;;;;;;5055174;28;1115;-66
2021/06/08 05:23:30;;;;;;;;;;;20.50;63.70;;;;;;5055244;28;1702;-66
2021/06/08 05:25:55;;;;;;;;;;;20.50;63.80;;;;;;5054026;28;1179;-66
2021/06/08 05:28:21;;;;;;;;;;;20.50;63.80;;;;;;5055546;28;1083;-66
2021/06/08 05:30:49;;;;;;;;;;;20.50;63.70;;;;;;5054125;28;2218;-66
2021/06/08 05:33:18;;;;;;;;;;;20.50;63.80;;;;;;5053643;28;1288;-66
2021/06/08 05:35:44;;;;;;;;;;;20.50;63.80;;;;;;5053778;28;1194;-66
2021/06/08 05:38:09;;;;;;;;;;;20.50;63.80;;;;;;5055029;28;1215;-66
2021/06/08 05:40:41;;;;;;;;;;;20.50;63.80;;;;;;5054990;28;1047;-66
2021/06/08 05:43:06;;;;;;;;;;;20.50;63.80;;;;;;5054429;28;1263;-66
2021/06/08 05:45:32;;;;;;;;;;;20.50;63.50;;;;;;5054681;28;1153;-66
2021/06/08 05:47:58;;;;;;;;;;;20.50;63.60;;;;;;5055100;28;1063;-66
2021/06/08 05:50:23;;;;;;;;;;;20.50;63.60;;;;;;5054582;28;1130;-65
2021/06/08 05:52:48;;;;;;;;;;;20.50;63.70;;;;;;5054417;28;1949;-66
2021/06/08 05:55:14;;;;;;;;;;;20.50;63.70;;;;;;5055019;28;1143;-65
2021/06/08 05:57:39;;;;;;;;;;;20.50;63.90;;;;;;5053249;28;1409;-65
2021/06/08 06:00:05;;;;;;;;;;;20.50;63.80;;;;;;5047537;28;1863;-64
2021/06/08 06:02:34;;;;;;;;;;;20.50;63.70;;;;;;5053292;28;1919;-64
2021/06/08 06:04:59;;;;;;;;;;;20.50;63.60;;;;;;5062274;28;1073;-64
2021/06/08 06:07:25;;;;;;;;;;;20.50;63.60;;;;;;5058423;28;1137;-65
2021/06/08 06:09:51;;;;;;;;;;;20.50;63.60;;;;;;5054945;28;1075;-64
2021/06/08 06:12:16;;;;;;;;;;;20.50;63.20;;;;;;5053876;28;1902;-64
2021/06/08 06:14:41;;;;;;;;;;;20.50;63.20;;;;;;5069323;23;2054;-69
2021/06/08 06:17:07;;;;;;;;;;;20.50;63.00;;;;;;5050142;28;967;-70
2021/06/08 06:19:33;;;;;;;;;;;20.50;63.10;;;;;;5048991;28;1147;-70
2021/06/08 06:21:59;;;;;;;;;;;20.50;63.20;;;;;;5044388;28;1126;-69
2021/06/08 06:24:26;;;;;;;;;;;20.50;63.40;;;;;;5051060;28;1182;-68
2021/06/08 06:26:51;;;;;;;;;;;20.50;63.40;;;;;;5051752;28;1126;-67
2021/06/08 06:29:17;;;;;;;;;;;20.50;63.30;;;;;;5051368;28;1191;-68
2021/06/08 06:31:46;;;;;;;;;;;20.50;63.30;;;;;;5051489;28;1934;-68
2021/06/08 06:34:12;;;;;;;;;;;20.60;63.50;;;;;;5051141;28;1300;-73
2021/06/08 06:36:38;;;;;;;;;;;20.60;63.60;;;;;;5035703;28;1290;-73
2021/06/08 06:39:23;;;;;;;;;;;20.60;63.40;;;;;;5052254;28;1215;-72
2021/06/08 06:41:49;;;;;;;;;;;20.50;63.30;;;;;;5053270;28;1190;-72
2021/06/08 06:44:16;;;;;;;;;;;20.60;63.30;;;;;;5052660;28;1294;-73
2021/06/08 06:46:42;;;;;;;;;;;20.60;63.20;;;;;;5053670;28;1099;-72
2021/06/08 06:49:07;;;;;;;;;;;20.60;63.50;;;;;;5052299;28;1131;-72
2021/06/08 06:51:33;;;;;;;;;;;20.60;63.50;;;;;;5051763;28;1907;-72
2021/06/08 06:53:59;;;;;;;;;;;20.60;63.50;;;;;;5051957;28;1208;-73
2021/06/08 06:56:24;;;;;;;;;;;20.60;63.50;;;;;;5053509;28;1098;-73
2021/06/08 06:58:50;;;;;;;;;;;20.60;63.40;;;;;;5051939;28;1083;-72
2021/06/08 07:01:19;;;;;;;;;;;20.60;63.30;;;;;;5040234;28;1150;-73
2021/06/08 07:03:44;;;;;;;;;;;20.60;63.10;;;;;;5052137;28;1238;-73
2021/06/08 07:06:10;;;;;;;;;;;20.60;63.20;;;;;;5040922;28;1057;-73
2021/06/08 07:08:35;;;;;;;;;;;20.60;63.10;;;;;;5051068;28;1095;-72
2021/06/08 07:11:01;;;;;;;;;;;20.70;63.80;;;;;;5046514;28;1907;-72
2021/06/08 07:13:27;;;;;;;;;;;20.60;64.00;;;;;;5044677;28;1632;-72
2021/06/08 07:15:53;;;;;;;;;;;20.60;64.40;;;;;;5023640;28;1201;-72
2021/06/08 07:18:18;;;;;;;;;;;20.70;64.60;;;;;;5041251;28;1188;-72
2021/06/08 07:20:43;;;;;;;;;;;20.70;64.70;;;;;;5043620;28;1278;-72
2021/06/08 07:23:09;;;;;;;;;;;20.70;64.60;;;;;;5045318;28;1385;-73
2021/06/08 07:25:37;;;;;;;;;;;20.70;64.70;;;;;;5044922;28;1285;-72
2021/06/08 07:28:04;;;;;;;;;;;20.70;64.90;;;;;;5043749;28;1223;-72
2021/06/08 07:30:29;;;;;;;;;;;20.70;65.00;;;;;;5041498;28;1224;-72
2021/06/08 07:33:10;;;;;;;;;;;20.70;65.10;;;;;;5040475;28;1914;-72
2021/06/08 07:35:39;;;;;;;;;;;20.70;65.10;;;;;;5049268;28;1123;-73
2021/06/08 07:38:07;;;;;;;;;;;20.70;65.40;;;;;;5053143;28;1090;-72
2021/06/08 07:40:34;;;;;;;;;;;20.70;65.40;;;;;;5053037;28;1227;-73
2021/06/08 07:43:03;;;;;;;;;;;20.70;65.50;;;;;;5051050;28;1280;-72
2021/06/08 07:45:39;;;;;;;;;;;20.70;65.60;;;;;;5051674;28;1123;-72
2021/06/08 07:48:06;;;;;;;;;;;20.70;65.60;;;;;;5034818;28;1195;-72
2021/06/08 07:50:33;;;;;;;;;;;20.70;65.80;;;;;;5035069;28;1172;-73
2021/06/08 07:52:58;;;;;;;;;;;20.80;66.10;;;;;;5050558;28;1886;-72
2021/06/08 07:55:24;;;;;;;;;;;20.70;66.30;;;;;;5051448;28;1151;-71
2021/06/08 07:57:49;;;;;;;;;;;20.70;66.50;;;;;;5052562;28;984;-72
2021/06/08 08:00:15;;;;;;;;;;;20.70;66.90;;;;;;5046841;28;1119;-72
2021/06/08 08:02:40;;;;;;;;;;;20.70;67.10;;;;;;5045783;28;1326;-73
2021/06/08 08:05:09;;;;;;;;;;;20.70;67.40;;;;;;5050586;28;705;-73
2021/06/08 08:07:35;;;;;;;;;;;20.80;67.70;;;;;;5050709;28;1095;-73
2021/06/08 08:10:00;;;;;;;;;;;20.70;68.50;;;;;;5050913;28;1080;-71
2021/06/08 08:12:26;;;;;;;;;;;20.80;68.10;;;;;;5050523;28;1952;-72
2021/06/08 08:14:52;;;;;;;;;;;20.80;68.60;;;;;;5051472;28;1362;-73
2021/06/08 08:17:17;;;;;;;;;;;20.80;68.50;;;;;;5052476;28;1154;-73
2021/06/08 08:19:43;;;;;;;;;;;20.80;68.30;;;;;;5051836;28;1044;-73
2021/06/08 08:22:08;;;;;;;;;;;20.80;68.50;;;;;;5046583;28;1244;-73
2021/06/08 08:24:34;;;;;;;;;;;20.80;68.40;;;;;;5050142;28;1140;-73
2021/06/08 08:27:01;;;;;;;;;;;20.80;68.60;;;;;;5050811;28;1056;-73
2021/06/08 08:29:26;;;;;;;;;;;20.80;68.30;;;;;;5050727;28;1079;-73
2021/06/08 08:31:52;;;;;;;;;;;20.90;68.30;;;;;;5051893;28;1910;-73
2021/06/08 08:34:17;;;;;;;;;;;20.80;68.10;;;;;;5050763;28;1294;-73
2021/06/08 08:36:45;;;;;;;;;;;20.80;68.00;;;;;;5051884;28;1079;-73
2021/06/08 08:39:11;;;;;;;;;;;20.80;67.80;;;;;;5051497;28;1059;-73
2021/06/08 08:41:36;;;;;;;;;;;20.80;68.00;;;;;;5050435;28;1173;-73
2021/06/08 08:44:02;;;;;;;;;;;20.90;68.10;;;;;;5054411;28;1290;-74
2021/06/08 08:46:28;;;;;;;;;;;20.80;67.80;;;;;;5054213;28;1111;-74
2021/06/08 08:48:55;;;;;;;;;;;20.80;67.80;;;;;;5053824;28;1135;-73
2021/06/08 08:51:20;;;;;;;;;;;20.90;67.90;;;;;;5054319;28;1907;-74
2021/06/08 08:53:46;;;;;;;;;;;20.80;67.80;;;;;;5052783;28;1220;-74
2021/06/08 08:56:12;;;;;;;;;;;20.90;67.90;;;;;;5052899;28;1083;-72
2021/06/08 08:58:37;;;;;;;;;;;20.90;67.90;;;;;;5037123;28;1268;-74
2021/06/08 09:01:03;;;;;;;;;;;20.90;68.00;;;;;;5055232;28;1145;-73
2021/06/08 09:03:28;;;;;;;;;;;20.90;67.90;;;;;;5053138;28;1351;-74
2021/06/08 09:05:59;;;;;;;;;;;20.90;68.00;;;;;;5053811;28;1076;-72
2021/06/08 09:08:24;;;;;;;;;;;20.90;68.20;;;;;;5055141;28;1067;-72
2021/06/08 09:10:50;;;;;;;;;;;20.90;68.30;;;;;;5054294;28;1894;-71
2021/06/08 09:13:16;;;;;;;;;;;21.00;68.30;;;;;;5056327;28;1401;-72
2021/06/08 09:15:42;;;;;;;;;;;21.00;68.50;;;;;;5066636;28;1050;-72
2021/06/08 09:18:08;;;;;;;;;;;21.00;68.60;;;;;;5053853;28;1075;-71
2021/06/08 09:20:33;;;;;;;;;;;21.00;68.80;;;;;;5047877;28;1072;-72
2021/06/08 09:22:59;;;;;;;;;;;21.00;68.80;;;;;;5054478;28;1282;-72
2021/06/08 09:25:35;;;;;;;;;;;21.00;69.00;;;;;;5053255;28;1162;-72
2021/06/08 09:28:12;;;;;;;;;;;21.00;69.20;;;;;;5054273;28;1130;-73
2021/06/08 09:30:38;;;;;;;;;;;21.00;69.30;;;;;;5054173;28;1091;-73
2021/06/08 09:33:11;;;;;;;;;;;21.00;69.30;;;;;;5052839;28;1975;-73
2021/06/08 09:35:36;;;;;;;;;;;21.00;69.80;;;;;;5036556;28;1247;-72
2021/06/08 09:38:01;;;;;;;;;;;21.10;69.80;;;;;;5054386;28;1130;-72
2021/06/08 09:40:27;;;;;;;;;;;21.10;69.80;;;;;;5053528;28;1131;-74
2021/06/08 09:43:03;;;;;;;;;;;21.10;69.70;;;;;;5052191;28;1358;-73
2021/06/08 09:45:28;;;;;;;;;;;21.10;69.80;;;;;;5036739;28;1366;-73
2021/06/08 09:48:00;;;;;;;;;;;21.10;70.00;;;;;;5052998;28;1344;-74
2021/06/08 09:50:25;;;;;;;;;;;21.10;70.10;;;;;;5052581;28;1214;-74
2021/06/08 09:52:51;;;;;;;;;;;21.10;70.10;;;;;;5053184;28;1902;-74
2021/06/08 09:55:16;;;;;;;;;;;21.10;69.90;;;;;;5054339;28;1102;-74
2021/06/08 09:57:42;;;;;;;;;;;21.10;70.60;;;;;;5036377;28;1160;-73
2021/06/08 10:00:07;;;;;;;;;;;21.00;69.60;;;;;;5054522;28;1190;-74
2021/06/08 10:02:41;;;;;;;;;;;21.10;69.70;;;;;;5052604;28;1079;-74
2021/06/08 10:05:13;;;;;;;;;;;21.00;69.60;;;;;;5052519;28;1411;-73
2021/06/08 10:07:39;;;;;;;;;;;21.00;69.60;;;;;;5051381;28;1875;-73
2021/06/08 10:10:08;;;;;;;;;;;21.00;69.60;;;;;;5049241;28;939;-73
2021/06/08 10:12:34;;;;;;;;;;;21.00;69.50;;;;;;5046913;28;1910;-73
2021/06/08 10:15:04;;;;;;;;;;;21.00;69.50;;;;;;5050722;28;1321;-73
2021/06/08 10:17:29;;;;;;;;;;;21.00;69.50;;;;;;5053024;28;1223;-73
2021/06/08 10:19:55;;;;;;;;;;;21.00;69.30;;;;;;5051894;28;1076;-73
2021/06/08 10:22:29;;;;;;;;;;;21.00;69.00;;;;;;5048136;28;1075;-74
2021/06/08 10:24:55;;;;;;;;;;;21.00;69.20;;;;;;5052973;28;1289;-73
2021/06/08 10:27:20;;;;;;;;;;;21.00;69.30;;;;;;5035257;28;1084;-73
2021/06/08 10:29:46;;;;;;;;;;;21.00;69.40;;;;;;5053632;28;1126;-72
2021/06/08 10:32:11;;;;;;;;;;;21.00;69.40;;;;;;5053097;28;1977;-73
2021/06/08 10:34:37;;;;;;;;;;;21.00;69.40;;;;;;5051389;28;1225;-73
2021/06/08 10:37:03;;;;;;;;;;;21.00;69.40;;;;;;5053388;28;1108;-73
2021/06/08 10:39:29;;;;;;;;;;;21.00;69.50;;;;;;5052233;28;1119;-73
2021/06/08 10:41:57;;;;;;;;;;;21.00;69.50;;;;;;5053594;28;1186;-73
2021/06/08 10:44:23;;;;;;;;;;;21.00;69.60;;;;;;5051629;28;1349;-73
2021/06/08 10:46:50;;;;;;;;;;;21.00;69.80;;;;;;5035382;28;1313;-73
2021/06/08 10:49:16;;;;;;;;;;;21.00;70.00;;;;;;5051688;28;1076;-73
2021/06/08 10:52:01;;;;;;;;;;;21.00;70.00;;;;;;5051574;28;1959;-74
2021/06/08 10:54:26;;;;;;;;;;;21.00;70.10;;;;;;5052314;28;1311;-73
2021/06/08 10:56:56;;;;;;;;;;;21.00;70.40;;;;;;5052372;28;1171;-73
2021/06/08 10:59:33;;;;;;;;;;;21.00;70.70;;;;;;5052962;28;1063;-73
2021/06/08 11:01:58;;;;;;;;;;;21.00;71.00;;;;;;5039036;28;1103;-74
2021/06/08 11:04:24;;;;;;;;;;;21.00;71.10;;;;;;5050209;28;1306;-73
2021/06/08 11:06:59;;;;;;;;;;;21.00;71.00;;;;;;5051293;28;1107;-73
2021/06/08 11:09:25;;;;;;;;;;;21.00;71.00;;;;;;5051115;28;1118;-74
2021/06/08 11:11:54;;;;;;;;;;;21.00;71.10;;;;;;5052642;28;1886;-73
2021/06/08 11:14:57;;;;;;;;;;;21.00;71.30;;;;;;5051628;28;1339;-74
2021/06/08 11:17:29;;;;;;;;;;;21.10;71.60;;;;;;5052551;28;1285;-74
2021/06/08 11:19:55;;;;;;;;;;;21.10;71.80;;;;;;5053989;28;1134;-74
2021/06/08 11:22:22;;;;;;;;;;;21.10;71.70;;;;;;5054564;28;1238;-74
2021/06/08 11:24:51;;;;;;;;;;;21.10;71.60;;;;;;5052369;28;1333;-73
2021/06/08 11:27:17;;;;;;;;;;;21.10;71.40;;;;;;5035801;28;1662;-74
2021/06/08 11:29:56;;;;;;;;;;;21.10;71.30;;;;;;5052720;28;1114;-74
2021/06/08 11:32:28;;;;;;;;;;;21.10;71.40;;;;;;5053320;28;1910;-73
2021/06/08 11:35:12;;;;;;;;;;;21.10;71.00;;;;;;5051770;28;1359;-74
2021/06/08 11:37:56;;;;;;;;;;;21.10;70.80;;;;;;5052245;28;1110;-74
2021/06/08 11:40:42;;;;;;;;;;;21.10;71.10;;;;;;5052098;28;1067;-74
2021/06/08 11:43:11;;;;;;;;;;;21.10;71.20;;;;;;5053413;28;1275;-74
2021/06/08 11:45:40;;;;;;;;;;;21.10;71.10;;;;;;5052995;28;1197;-74
2021/06/08 11:48:25;;;;;;;;;;;21.10;71.00;;;;;;5053596;28;1081;-74
2021/06/08 11:50:50;;;;;;;;;;;21.10;71.00;;;;;;5054474;28;1134;-74
2021/06/08 11:53:16;;;;;;;;;;;21.10;70.80;;;;;;5053729;28;1894;-74
2021/06/08 11:55:41;;;;;;;;;;;21.10;70.90;;;;;;5054094;28;998;-73
2021/06/08 11:58:25;;;;;;;;;;;21.10;70.80;;;;;;5053788;28;1101;-74
2021/06/08 12:00:52;;;;;;;;;;;21.00;70.70;;;;;;5054036;28;1158;-74
2021/06/08 12:03:30;;;;;;;;;;;21.00;70.90;;;;;;5050643;28;1261;-73
2021/06/08 12:05:57;;;;;;;;;;;21.10;71.10;;;;;;5051057;28;1166;-73
2021/06/08 12:08:22;;;;;;;;;;;21.00;71.20;;;;;;5050488;28;1189;-74
2021/06/08 12:10:48;;;;;;;;;;;21.00;71.20;;;;;;5051917;28;1161;-73
2021/06/08 12:15:42;;;;;;;;;;;21.10;72.30;;;;;;5046476;28;2198;-68
2021/06/08 12:18:09;;;;;;;;;;;21.10;72.50;;;;;;5055997;28;1149;-67
2021/06/08 12:20:35;;;;;;;;;;;21.10;72.50;;;;;;5041544;28;1558;-64
2021/06/08 12:23:01;;;;;;;;;;;21.10;72.40;;;;;;5053301;28;1644;-64
2021/06/08 12:25:27;;;;;;;;;;;21.10;72.40;;;;;;5053901;28;1686;-65
2021/06/08 12:27:52;;;;;;;;;;;21.10;72.20;;;;;;5053601;28;1697;-67
2021/06/08 12:30:21;;;;;;;;;;;21.10;72.00;;;;;;5055717;28;1676;-65
2021/06/08 12:32:53;;;;;;;;;;;21.10;72.70;;;;;;5055411;28;1981;-67
2021/06/08 12:35:19;;;;;;;;;;;21.10;71.80;;;;;;5054678;28;1681;-67
2021/06/08 12:37:45;;;;;;;;;;;21.10;71.90;;;;;;5054431;28;1418;-66
2021/06/08 12:40:11;;;;;;;;;;;21.10;71.90;;;;;;5055761;28;1655;-66
2021/06/08 12:42:36;;;;;;;;;;;21.10;71.80;;;;;;5054353;28;1371;-65
2021/06/08 12:45:01;;;;;;;;;;;21.10;71.80;;;;;;5055141;28;1356;-66
2021/06/08 12:47:31;;;;;;;;;;;21.10;71.70;;;;;;5055749;28;1362;-66
2021/06/08 12:49:58;;;;;;;;;;;21.10;71.60;;;;;;5055891;28;1655;-65
2021/06/08 12:52:24;;;;;;;;;;;21.10;71.60;;;;;;5055528;28;1902;-66
2021/06/08 12:54:50;;;;;;;;;;;21.10;71.60;;;;;;5054339;28;1283;-65
2021/06/08 12:57:26;;;;;;;;;;;21.10;71.50;;;;;;5055247;28;1575;-66
2021/06/08 12:59:51;;;;;;;;;;;21.10;71.50;;;;;;5035786;28;1560;-66
2021/06/08 13:02:16;;;;;;;;;;;21.10;71.40;;;;;;5035941;28;1347;-65
2021/06/08 13:04:43;;;;;;;;;;;21.10;71.30;;;;;;5040703;28;1238;-66
2021/06/08 13:07:11;;;;;;;;;;;21.10;71.30;;;;;;5053941;28;1658;-66
2021/06/08 13:09:36;;;;;;;;;;;21.10;72.00;;;;;;5055423;28;1618;-66
2021/06/08 13:12:05;;;;;;;;;;;21.10;71.20;;;;;;5055083;28;2016;-66
2021/06/08 13:14:30;;;;;;;;;;;21.10;71.30;;;;;;5050079;28;1674;-67
2021/06/08 13:16:55;;;;;;;;;;;21.10;71.20;;;;;;5033998;28;1619;-65
2021/06/08 13:19:22;;;;;;;;;;;21.10;71.20;;;;;;5052059;28;1283;-65
2021/06/08 13:21:48;;;;;;;;;;;21.10;71.20;;;;;;5037397;28;1388;-65
2021/06/08 13:24:23;;;;;;;;;;;21.10;71.10;;;;;;5034312;28;1576;-66
2021/06/08 13:26:49;;;;;;;;;;;21.10;71.00;;;;;;5034029;28;1573;-66
2021/06/08 13:29:15;;;;;;;;;;;21.10;71.10;;;;;;5032519;28;1385;-66
2021/06/08 13:31:41;;;;;;;;;;;21.10;71.30;;;;;;5034844;28;1960;-66
2021/06/08 13:34:16;;;;;;;;;;;21.10;71.20;;;;;;5033486;28;1468;-66
2021/06/08 13:36:42;;;;;;;;;;;21.10;71.20;;;;;;5033814;28;1707;-66
2021/06/08 13:39:11;;;;;;;;;;;21.10;71.20;;;;;;5033567;28;1709;-66
2021/06/08 13:41:36;;;;;;;;;;;21.10;71.10;;;;;;5033358;28;1598;-65
2021/06/08 13:44:05;;;;;;;;;;;21.10;71.20;;;;;;5033723;28;1618;-65
2021/06/08 13:46:31;;;;;;;;;;;21.10;71.10;;;;;;5035400;28;1511;-66
2021/06/08 13:48:59;;;;;;;;;;;21.10;71.10;;;;;;5053225;28;1621;-66
2021/06/08 13:51:25;;;;;;;;;;;21.10;71.00;;;;;;5054668;28;1961;-66
2021/06/08 13:54:09;;;;;;;;;;;21.10;71.00;;;;;;5045841;28;1474;-66
2021/06/08 13:56:41;;;;;;;;;;;21.10;70.90;;;;;;5051613;28;1422;-66
2021/06/08 14:01:57;;;;;;;;;;;21.10;70.90;;;;;;5034803;28;1332;-66
2021/06/08 14:04:23;;;;;;;;;;;21.10;70.80;;;;;;5032100;28;1598;-67
2021/06/08 14:06:49;;;;;;;;;;;21.10;70.80;;;;;;5033265;28;1666;-67
2021/06/08 14:09:16;;;;;;;;;;;21.10;70.70;;;;;;5032954;28;2011;-66
2021/06/08 14:11:48;;;;;;;;;;;21.10;70.70;;;;;;5040475;28;1890;-66
2021/06/08 14:14:15;;;;;;;;;;;21.10;70.90;;;;;;5028882;28;1390;-66
2021/06/08 14:16:41;;;;;;;;;;;21.10;70.80;;;;;;5042131;28;1213;-66
2021/06/08 14:19:06;;;;;;;;;;;21.10;70.90;;;;;;5050394;28;1281;-66
2021/06/08 14:21:32;;;;;;;;;;;21.10;71.00;;;;;;5037313;28;1422;-64
2021/06/08 14:23:58;;;;;;;;;;;21.10;71.00;;;;;;5052624;28;1279;-65
2021/06/08 14:26:28;;;;;;;;;;;21.10;71.10;;;;;;5053440;28;1157;-65
2021/06/08 14:28:54;;;;;;;;;;;21.10;71.00;;;;;;5051952;28;1857;-66
2021/06/08 14:31:20;;;;;;;;;;;21.10;70.90;;;;;;5053513;28;1965;-65
2021/06/08 14:33:45;;;;;;;;;;;21.10;70.90;;;;;;5052584;28;1398;-67
2021/06/08 14:36:10;;;;;;;;;;;21.10;70.90;;;;;;5053225;28;1654;-65